VEGT/GAU METAR and TAF weather

Enter ICAO airport designator
Station Type Date Time Source
VEGT METAR 2019/06/18 04:30 UTC NOAA

VEGT 180430Z 35007KT 4000 BR SCT018 FEW025CB 32/28 Q1002 NOSIG


Station Type Date Time Source
VEGT Decoded METAR 2019/06/18 04:30 UTC NOAA

Gauhati, India (VEGT) 26-06N 091-35E 54M
Jun 18, 2019 - 12:30 AM EDT / 2019.06.18 0430 UTC
Wind: from the N (350 degrees) at 8 MPH (7 KT):0
Visibility: 2 mile(s):0
Sky conditions: partly cloudy
Weather: mist; Cumulonimbus clouds observed
Temperature: 89 F (32 C)
Heat index: 109.0 F (42.8 C):1
Dew Point: 82 F (28 C)
Relative Humidity: 79%
Pressure (altimeter): 29.59 in. Hg (1002 hPa)
ob: VEGT 180430Z 35007KT 4000 BR SCT018 FEW025CB 32/28 Q1002 NOSIG
cycle: 4

Station Type Date Time Source
VEGT TAF 2016/03/24 00:45 UTC NOAA

TAF VEGT 242300Z 2500/2606 00000KT 2000 BR FEW020
BECMG 2503/2506 05008KT 4000 HZ
BECMG 2506/2509 5000 HZ
BECMG 2512/2514 00000KT 4000 HZ FEW020 SCT100
BECMG 2515/2518 2500 HZ
BECMG 2603/2606 05008KT 4000 HZ FEW020=

Example: see airport list